createdAt,value
2022-09-12T00:02:27.776Z,12.75
2022-09-12T00:04:59.253Z,12.73
2022-09-12T00:07:32.220Z,12.70
2022-09-12T00:10:03.210Z,12.69
2022-09-12T00:12:34.449Z,12.68
2022-09-12T00:15:06.385Z,12.66
2022-09-12T00:17:40.186Z,12.64
2022-09-12T00:20:12.810Z,12.61
2022-09-12T00:22:43.765Z,12.60
2022-09-12T00:25:14.606Z,12.58
2022-09-12T00:27:45.552Z,12.57
2022-09-12T00:30:16.530Z,12.56
2022-09-12T00:32:47.365Z,12.54
2022-09-12T00:35:18.202Z,12.54
2022-09-12T00:37:49.014Z,12.53
2022-09-12T00:40:19.985Z,12.51
2022-09-12T00:42:50.812Z,12.51
2022-09-12T00:45:28.431Z,12.50
2022-09-12T00:48:03.340Z,12.50
2022-09-12T00:50:35.223Z,12.51
2022-09-12T00:53:09.286Z,12.51
2022-09-12T00:55:43.823Z,12.51
2022-09-12T00:58:20.327Z,12.51
2022-09-12T01:00:51.369Z,12.51
2022-09-12T01:03:24.939Z,12.50
2022-09-12T01:06:02.599Z,12.48
2022-09-12T01:08:34.305Z,12.46
2022-09-12T01:11:05.462Z,12.44
2022-09-12T01:13:37.566Z,12.43
2022-09-12T01:16:09.778Z,12.42
2022-09-12T01:18:53.873Z,12.40
2022-09-12T01:21:35.448Z,12.38
2022-09-12T01:24:44.238Z,12.37
2022-09-12T01:27:33.526Z,12.36
2022-09-12T01:30:27.642Z,12.36
2022-09-12T01:33:27.335Z,12.37
2022-09-12T01:36:10.842Z,12.38
2022-09-12T01:38:47.211Z,12.39
2022-09-12T01:41:26.637Z,12.39
2022-09-12T01:44:06.957Z,12.39
2022-09-12T01:46:48.367Z,12.40
2022-09-12T01:49:24.293Z,12.41
2022-09-12T01:52:01.377Z,12.41
2022-09-12T01:54:40.031Z,12.42
2022-09-12T01:57:15.363Z,12.43
2022-09-12T01:59:49.505Z,12.43
2022-09-12T02:02:26.606Z,12.42
2022-09-12T02:05:04.238Z,12.42
2022-09-12T02:07:40.813Z,12.40
2022-09-12T02:10:16.051Z,12.41
2022-09-12T02:12:51.169Z,12.41
2022-09-12T02:15:21.962Z,12.41
2022-09-12T02:17:56.620Z,12.40
2022-09-12T02:20:47.376Z,12.39
2022-09-12T02:23:25.955Z,12.37
2022-09-12T02:26:01.719Z,12.37
2022-09-12T02:28:36.491Z,12.35
2022-09-12T02:31:25.150Z,12.35
2022-09-12T02:34:10.517Z,12.35
2022-09-12T02:36:50.154Z,12.34
2022-09-12T02:39:21.435Z,12.31
2022-09-12T02:41:55.821Z,12.30
2022-09-12T02:44:28.372Z,12.30
2022-09-12T02:47:03.952Z,12.30
2022-09-12T02:49:35.082Z,12.31
2022-09-12T02:52:06.852Z,12.32
2022-09-12T02:54:39.088Z,12.34
2022-09-12T02:57:22.653Z,12.35
2022-09-12T02:59:57.793Z,12.35
2022-09-12T03:02:41.834Z,12.35
2022-09-12T03:05:22.544Z,12.34
2022-09-12T03:08:16.303Z,12.32
2022-09-12T03:11:02.549Z,12.32
2022-09-12T03:13:40.325Z,12.30
2022-09-12T03:16:18.311Z,12.27
2022-09-12T03:18:59.261Z,12.27
2022-09-12T03:21:38.392Z,12.26
2022-09-12T03:24:19.281Z,12.28
2022-09-12T03:26:54.559Z,12.28
2022-09-12T03:29:27.912Z,12.29
2022-09-12T03:32:00.071Z,12.29
2022-09-12T03:34:31.090Z,12.28
2022-09-12T03:37:02.323Z,12.28
2022-09-12T03:39:33.795Z,12.27
2022-09-12T03:42:05.212Z,12.27
2022-09-12T03:44:36.076Z,12.27
2022-09-12T03:47:11.092Z,12.27
2022-09-12T03:49:42.336Z,12.27
2022-09-12T03:52:13.452Z,12.27
2022-09-12T03:54:44.245Z,12.26
2022-09-12T03:57:15.690Z,12.25
2022-09-12T03:59:46.562Z,12.24
2022-09-12T04:02:17.567Z,12.24
2022-09-12T04:04:49.223Z,12.24
2022-09-12T04:07:20.162Z,12.23
2022-09-12T04:09:51.022Z,12.21
2022-09-12T04:12:22.066Z,12.20
2022-09-12T04:14:52.923Z,12.20
2022-09-12T04:17:24.702Z,12.21
2022-09-12T04:19:55.570Z,12.21
2022-09-12T04:22:26.535Z,12.22
2022-09-12T04:24:58.217Z,12.23
2022-09-12T04:27:29.726Z,12.23
2022-09-12T04:30:02.272Z,12.23
2022-09-12T04:32:33.777Z,12.21
2022-09-12T04:35:05.050Z,12.22
2022-09-12T04:37:39.129Z,12.23
2022-09-12T04:40:12.025Z,12.24
2022-09-12T04:43:03.103Z,12.23
2022-09-12T04:45:34.133Z,12.24
2022-09-12T04:48:21.074Z,12.24
2022-09-12T04:51:05.548Z,12.24
2022-09-12T04:53:37.189Z,12.25
2022-09-12T04:56:11.073Z,12.26
2022-09-12T04:58:42.239Z,12.25
2022-09-12T05:01:24.657Z,12.25
2022-09-12T05:04:09.952Z,12.23
2022-09-12T05:06:47.613Z,12.22
2022-09-12T05:09:18.799Z,12.19
2022-09-12T05:12:07.441Z,12.18
2022-09-12T05:14:41.398Z,12.18
2022-09-12T05:17:19.371Z,12.18
2022-09-12T05:19:58.458Z,12.20
2022-09-12T05:22:29.650Z,12.20
2022-09-12T05:25:04.090Z,12.21
2022-09-12T05:27:36.321Z,12.19
2022-09-12T05:30:09.023Z,12.18
2022-09-12T05:32:41.265Z,12.19
2022-09-12T05:35:12.438Z,12.18
2022-09-12T05:37:44.202Z,12.18
2022-09-12T05:40:19.516Z,12.17
2022-09-12T05:42:50.685Z,12.17
2022-09-12T05:45:21.858Z,12.17
2022-09-12T05:47:54.247Z,12.20
2022-09-12T05:50:26.263Z,12.22
2022-09-12T05:52:57.927Z,12.22
2022-09-12T05:55:29.432Z,12.23
2022-09-12T05:58:00.337Z,12.25
2022-09-12T06:00:33.554Z,12.25
2022-09-12T06:03:05.709Z,12.26
2022-09-12T06:05:37.303Z,12.27
2022-09-12T06:08:08.875Z,12.29
2022-09-12T06:10:39.810Z,12.32
2022-09-12T06:13:11.547Z,12.33
2022-09-12T06:15:42.678Z,12.35
2022-09-12T06:18:13.717Z,12.35
2022-09-12T06:20:44.839Z,12.36
2022-09-12T06:23:15.685Z,12.36
2022-09-12T06:25:52.476Z,12.38
2022-09-12T06:29:16.379Z,12.41
2022-09-12T06:31:47.618Z,12.43
2022-09-12T06:34:19.687Z,12.45
2022-09-12T06:36:53.023Z,12.48
2022-09-12T06:40:12.523Z,12.51
2022-09-12T06:42:43.936Z,12.57
2022-09-12T06:45:16.610Z,12.58
2022-09-12T06:47:47.809Z,12.60
2022-09-12T06:50:19.416Z,12.61
2022-09-12T06:52:51.894Z,12.64
2022-09-12T06:55:27.740Z,12.67
2022-09-12T06:57:58.955Z,12.71
2022-09-12T07:00:29.895Z,12.74
2022-09-12T07:03:02.209Z,12.75
2022-09-12T07:05:35.128Z,12.75
2022-09-12T07:08:06.209Z,12.76
2022-09-12T07:10:37.035Z,12.78
2022-09-12T07:13:08.086Z,12.81
2022-09-12T07:15:39.563Z,12.84
2022-09-12T07:18:18.594Z,12.85
2022-09-12T07:20:49.603Z,12.85
2022-09-12T07:23:20.571Z,12.85
2022-09-12T07:25:57.584Z,12.86
2022-09-12T07:28:31.019Z,12.86
2022-09-12T07:31:08.801Z,12.89
2022-09-12T07:33:40.909Z,12.94
2022-09-12T07:36:18.933Z,12.97
2022-09-12T07:38:57.206Z,12.98
2022-09-12T07:41:30.426Z,13.00
2022-09-12T07:44:03.715Z,13.03
2022-09-12T07:46:37.507Z,13.06
2022-09-12T07:49:08.850Z,13.08
2022-09-12T07:51:39.747Z,13.10
2022-09-12T07:54:12.313Z,13.13
2022-09-12T07:56:43.310Z,13.17
2022-09-12T07:59:25.370Z,13.21
2022-09-12T08:02:06.166Z,13.23
2022-09-12T08:04:37.176Z,13.25
2022-09-12T08:07:08.147Z,13.27
2022-09-12T08:09:39.415Z,13.29
2022-09-12T08:12:11.689Z,13.32
2022-09-12T08:14:42.650Z,13.34
2022-09-12T08:17:15.466Z,13.36
2022-09-12T08:19:48.343Z,13.41
2022-09-12T08:22:22.533Z,13.45
2022-09-12T08:24:53.886Z,13.50
2022-09-12T08:27:24.964Z,13.55
2022-09-12T08:30:03.271Z,13.58
2022-09-12T08:32:35.912Z,13.61
2022-09-12T08:35:08.169Z,13.63
2022-09-12T08:37:39.212Z,13.63
2022-09-12T08:40:26.660Z,13.66
2022-09-12T08:43:11.559Z,13.71
2022-09-12T08:45:52.521Z,13.73
2022-09-12T08:48:24.368Z,13.78
2022-09-12T08:50:55.483Z,13.81
2022-09-12T08:53:29.326Z,13.83
2022-09-12T08:56:04.085Z,13.87
2022-09-12T08:58:40.847Z,13.90
2022-09-12T09:01:16.884Z,13.94
2022-09-12T09:04:11.228Z,13.98
2022-09-12T09:06:57.322Z,13.99
2022-09-12T09:09:39.837Z,14.03
2022-09-12T09:12:21.432Z,14.06
2022-09-12T09:15:15.143Z,14.09
2022-09-12T09:17:51.357Z,14.11
2022-09-12T09:20:31.641Z,14.17
2022-09-12T09:23:10.318Z,14.20
2022-09-12T09:25:51.327Z,14.21
2022-09-12T09:28:31.297Z,14.23
2022-09-12T09:31:02.708Z,14.26
2022-09-12T09:33:36.848Z,14.27
2022-09-12T09:36:19.325Z,14.29
2022-09-12T09:39:00.959Z,14.34
2022-09-12T09:41:51.448Z,14.37
2022-09-12T09:44:22.600Z,14.41
2022-09-12T09:46:59.260Z,14.45
2022-09-12T09:49:36.402Z,14.48
2022-09-12T09:52:09.586Z,14.51
2022-09-12T09:54:44.247Z,14.56
2022-09-12T09:57:42.198Z,14.60
2022-09-12T10:00:30.661Z,14.62
2022-09-12T10:03:12.577Z,14.63
2022-09-12T10:05:50.893Z,14.61
2022-09-12T10:08:27.511Z,14.58
2022-09-12T10:11:04.763Z,14.55
2022-09-12T10:13:43.000Z,14.53
2022-09-12T10:16:23.746Z,14.53
2022-09-12T10:18:56.598Z,14.54
2022-09-12T10:21:33.549Z,14.52
2022-09-12T10:24:15.568Z,14.51
2022-09-12T10:26:55.885Z,14.52
2022-09-12T10:29:31.711Z,14.53
2022-09-12T10:32:08.388Z,14.51
2022-09-12T10:34:44.247Z,14.49
2022-09-12T10:37:27.781Z,14.49
2022-09-12T10:40:00.600Z,14.47
2022-09-12T10:42:51.559Z,14.43
2022-09-12T10:45:30.201Z,14.42
2022-09-12T10:48:07.309Z,14.41
2022-09-12T10:50:43.790Z,14.42
2022-09-12T10:53:22.337Z,14.42
2022-09-12T10:56:08.990Z,14.44
2022-09-12T10:59:11.899Z,14.46
2022-09-12T11:01:45.879Z,14.47
2022-09-12T11:04:34.057Z,14.50
2022-09-12T11:07:47.759Z,14.52
2022-09-12T11:10:45.326Z,14.53
2022-09-12T11:13:29.649Z,14.55
2022-09-12T11:16:15.840Z,14.58
2022-09-12T11:19:06.576Z,14.65
2022-09-12T11:21:53.601Z,14.74
2022-09-12T11:24:48.563Z,14.81
2022-09-12T11:27:38.889Z,14.91
2022-09-12T11:30:13.561Z,15.00
2022-09-12T11:33:07.757Z,15.04
2022-09-12T11:35:51.850Z,15.05
2022-09-12T11:39:03.665Z,15.04
2022-09-12T11:41:39.768Z,15.02
2022-09-12T11:44:20.483Z,14.99
2022-09-12T11:46:53.998Z,14.97
2022-09-12T11:49:35.565Z,14.93
2022-09-12T11:52:15.228Z,14.89
2022-09-12T11:54:53.547Z,14.86
2022-09-12T11:57:32.319Z,14.83
2022-09-12T12:00:12.277Z,14.82
2022-09-12T12:02:59.101Z,14.80
2022-09-12T12:05:37.079Z,14.82
2022-09-12T12:08:12.324Z,14.84
2022-09-12T12:10:45.123Z,14.83
2022-09-12T12:13:24.277Z,14.81
2022-09-12T12:15:59.475Z,14.80
2022-09-12T12:18:38.170Z,14.79
2022-09-12T12:21:36.985Z,14.79
2022-09-12T12:24:16.590Z,14.79
2022-09-12T12:26:58.644Z,14.81
2022-09-12T12:29:44.644Z,14.86
2022-09-12T12:32:30.635Z,14.89
2022-09-12T12:35:36.335Z,14.92
2022-09-12T12:38:27.514Z,14.96
2022-09-12T12:41:34.926Z,14.98
2022-09-12T12:44:43.793Z,14.98
2022-09-12T12:47:21.921Z,14.97
2022-09-12T12:49:57.716Z,14.96
2022-09-12T12:52:31.219Z,14.95
2022-09-12T12:55:05.334Z,14.96
2022-09-12T12:57:52.319Z,14.95
2022-09-12T13:00:33.469Z,14.94
2022-09-12T13:03:11.806Z,14.93
2022-09-12T13:05:48.778Z,14.93
2022-09-12T13:08:33.093Z,14.95
2022-09-12T13:11:08.755Z,14.97
2022-09-12T13:13:43.993Z,15.01
2022-09-12T13:16:29.731Z,15.04
2022-09-12T13:19:06.233Z,15.07
2022-09-12T13:21:38.440Z,15.08
2022-09-12T13:24:18.982Z,15.10
2022-09-12T13:26:50.493Z,15.10
2022-09-12T13:29:23.638Z,15.12
2022-09-12T13:31:57.716Z,15.14
2022-09-12T13:34:35.081Z,15.18
2022-09-12T13:37:25.492Z,15.24
2022-09-12T13:40:05.415Z,15.31
2022-09-12T13:42:43.228Z,15.39
2022-09-12T13:45:21.772Z,15.45
2022-09-12T13:47:58.517Z,15.50
2022-09-12T13:50:33.497Z,15.55
2022-09-12T13:53:09.100Z,15.59
2022-09-12T13:55:44.024Z,15.65
2022-09-12T13:58:23.523Z,15.70
2022-09-12T14:01:13.050Z,15.75
2022-09-12T14:04:07.854Z,15.80
2022-09-12T14:06:50.981Z,15.89
2022-09-12T14:09:29.815Z,15.96
2022-09-12T14:12:03.301Z,16.03
2022-09-12T14:14:42.278Z,16.09
2022-09-12T14:17:26.572Z,16.16
2022-09-12T14:20:23.422Z,16.25
2022-09-12T14:22:55.319Z,16.31
2022-09-12T14:25:32.075Z,16.37
2022-09-12T14:28:07.275Z,16.41
2022-09-12T14:30:39.428Z,16.42
2022-09-12T14:33:23.892Z,16.41
2022-09-12T14:36:12.164Z,16.40
2022-09-12T14:38:47.666Z,16.38
2022-09-12T14:41:27.438Z,16.37
2022-09-12T14:44:04.272Z,16.34
2022-09-12T14:46:37.741Z,16.32
2022-09-12T14:49:15.850Z,16.31
2022-09-12T14:51:56.994Z,16.28
2022-09-12T14:54:45.038Z,16.25
2022-09-12T14:57:40.202Z,16.21
2022-09-12T15:00:32.176Z,16.17
2022-09-12T15:03:25.891Z,16.15
2022-09-12T15:06:25.684Z,16.12
2022-09-12T15:09:00.703Z,16.12
2022-09-12T15:11:34.944Z,16.10
2022-09-12T15:14:16.536Z,16.09
2022-09-12T15:16:48.092Z,16.07
2022-09-12T15:19:19.090Z,16.06
2022-09-12T15:21:50.587Z,16.03
2022-09-12T15:24:44.969Z,16.01
2022-09-12T15:27:17.388Z,15.98
2022-09-12T15:30:01.022Z,15.96
2022-09-12T15:32:33.355Z,15.92
2022-09-12T15:35:18.615Z,15.87
2022-09-12T15:37:52.638Z,15.85
2022-09-12T15:41:05.250Z,15.81
2022-09-12T15:43:36.578Z,15.76
2022-09-12T15:46:11.751Z,15.72
2022-09-12T15:48:41.893Z,15.68
2022-09-12T15:51:15.961Z,15.64
2022-09-12T15:53:52.693Z,15.60
2022-09-12T15:56:24.994Z,15.57
2022-09-12T15:59:00.215Z,15.52
2022-09-12T16:01:43.328Z,15.48
2022-09-12T16:04:24.863Z,15.44
2022-09-12T16:06:58.199Z,15.41
2022-09-12T16:09:29.853Z,15.36
2022-09-12T16:12:04.939Z,15.31
2022-09-12T16:14:36.202Z,15.24
2022-09-12T16:17:07.902Z,15.20
2022-09-12T16:19:39.563Z,15.17
2022-09-12T16:22:10.975Z,15.13
2022-09-12T16:24:54.322Z,15.12
2022-09-12T16:27:28.253Z,15.09
2022-09-12T16:30:02.516Z,15.05
2022-09-12T16:32:41.212Z,15.01
2022-09-12T16:35:13.726Z,14.96
2022-09-12T16:37:44.787Z,14.91
2022-09-12T16:40:19.471Z,14.86
2022-09-12T16:42:50.833Z,14.81
2022-09-12T16:45:21.971Z,14.78
2022-09-12T16:47:52.926Z,14.76
2022-09-12T16:50:24.012Z,14.73
2022-09-12T16:52:54.946Z,14.71
2022-09-12T16:55:33.838Z,14.70
2022-09-12T16:58:08.122Z,14.68
2022-09-12T17:00:41.804Z,14.66
2022-09-12T17:03:22.982Z,14.63
2022-09-12T17:06:07.993Z,14.61
2022-09-12T17:08:41.285Z,14.58
2022-09-12T17:11:22.058Z,14.57
2022-09-12T17:14:11.384Z,14.56
2022-09-12T17:16:51.739Z,14.56
2022-09-12T17:19:41.543Z,14.55
2022-09-12T17:22:20.437Z,14.54
2022-09-12T17:25:05.514Z,14.54
2022-09-12T17:27:42.265Z,14.53
2022-09-12T17:30:27.297Z,14.51
2022-09-12T17:33:26.586Z,14.49
2022-09-12T17:36:28.293Z,14.44
2022-09-12T17:38:59.794Z,14.44
2022-09-12T17:41:37.972Z,14.42
2022-09-12T17:47:29.511Z,14.39
2022-09-12T17:50:29.993Z,14.38
2022-09-12T17:53:02.219Z,14.36
2022-09-12T17:55:35.448Z,14.36
2022-09-12T17:58:13.958Z,14.35
2022-09-12T18:01:30.770Z,14.35
2022-09-12T18:04:04.355Z,14.35
2022-09-12T18:06:36.333Z,14.34
2022-09-12T18:09:10.237Z,14.34
2022-09-12T18:11:43.482Z,14.32
2022-09-12T18:14:26.297Z,14.32
2022-09-12T18:17:00.210Z,14.33
2022-09-12T18:19:32.018Z,14.35
2022-09-12T18:22:03.486Z,14.35
2022-09-12T18:24:39.787Z,14.37
2022-09-12T18:27:10.867Z,14.38
2022-09-12T18:29:58.870Z,14.39
2022-09-12T18:32:38.372Z,14.40
2022-09-12T18:35:12.101Z,14.41
2022-09-12T18:37:46.742Z,14.41
2022-09-12T18:40:18.584Z,14.44
2022-09-12T18:43:01.467Z,14.45
2022-09-12T18:45:32.927Z,14.44
2022-09-12T18:48:10.353Z,14.47
2022-09-12T18:50:41.647Z,14.46
2022-09-12T18:53:14.900Z,14.44
2022-09-12T18:55:48.280Z,14.43
2022-09-12T18:58:19.881Z,14.41
2022-09-12T19:01:16.691Z,14.40
2022-09-12T19:03:48.123Z,14.37
2022-09-12T19:06:27.759Z,14.36
2022-09-12T19:09:03.877Z,14.32
2022-09-12T19:11:57.295Z,14.28
2022-09-12T19:14:49.896Z,14.22
2022-09-12T19:17:25.170Z,14.18
2022-09-12T19:19:56.849Z,14.14
2022-09-12T19:22:28.260Z,14.11
2022-09-12T19:25:20.693Z,14.08
2022-09-12T19:28:00.170Z,14.05
2022-09-12T19:30:31.404Z,14.04
2022-09-12T19:33:06.830Z,14.02
2022-09-12T19:35:48.357Z,13.99
2022-09-12T19:38:22.856Z,13.95
2022-09-12T19:41:05.362Z,13.92
2022-09-12T19:43:37.227Z,13.89
2022-09-12T19:46:19.958Z,13.85
2022-09-12T19:48:57.810Z,13.81
2022-09-12T19:51:29.185Z,13.76
2022-09-12T19:54:01.943Z,13.71
2022-09-12T19:56:35.940Z,13.66
2022-09-12T19:59:16.310Z,13.63
2022-09-12T20:02:29.121Z,13.57
2022-09-12T20:05:00.709Z,13.52
2022-09-12T20:07:32.247Z,13.46
2022-09-12T20:10:03.963Z,13.42
2022-09-12T20:12:35.729Z,13.38
2022-09-12T20:15:12.360Z,13.36
2022-09-12T20:18:28.017Z,13.31
2022-09-12T20:20:59.760Z,13.27
2022-09-12T20:23:44.265Z,13.23
2022-09-12T20:26:27.309Z,13.18
2022-09-12T20:29:14.523Z,13.13
2022-09-12T20:31:55.252Z,13.07
2022-09-12T20:34:28.757Z,13.04
2022-09-12T20:37:01.482Z,13.00
2022-09-12T20:40:14.059Z,12.95
2022-09-12T20:42:56.616Z,12.91
2022-09-12T20:45:29.430Z,12.86
2022-09-12T20:48:04.883Z,12.82
2022-09-12T20:50:36.490Z,12.78
2022-09-12T20:53:07.810Z,12.74
2022-09-12T20:55:42.006Z,12.72
2022-09-12T20:58:13.863Z,12.68
2022-09-12T21:00:45.069Z,12.65
2022-09-12T21:03:17.015Z,12.61
2022-09-12T21:05:49.010Z,12.58
2022-09-12T21:08:20.278Z,12.55
2022-09-12T21:10:53.855Z,12.51
2022-09-12T21:13:24.824Z,12.49
2022-09-12T21:16:03.341Z,12.46
2022-09-12T21:18:38.481Z,12.42
2022-09-12T21:21:10.872Z,12.39
2022-09-12T21:23:42.630Z,12.36
2022-09-12T21:26:13.662Z,12.33
2022-09-12T21:28:47.741Z,12.30
2022-09-12T21:31:18.845Z,12.28
2022-09-12T21:33:49.956Z,12.26
2022-09-12T21:36:20.988Z,12.23
2022-09-12T21:38:51.997Z,12.20
2022-09-12T21:41:22.963Z,12.16
2022-09-12T21:43:53.981Z,12.13
2022-09-12T21:46:32.692Z,12.10
2022-09-12T21:49:03.981Z,12.07
2022-09-12T21:51:55.268Z,12.04
2022-09-12T21:54:26.216Z,12.01
2022-09-12T21:56:57.447Z,11.97
2022-09-12T21:59:28.403Z,11.93
2022-09-12T22:01:59.814Z,11.87
2022-09-12T22:04:33.161Z,11.84
2022-09-12T22:07:05.488Z,11.80
2022-09-12T22:09:37.673Z,11.77
2022-09-12T22:12:09.765Z,11.74
2022-09-12T22:14:41.634Z,11.71
2022-09-12T22:17:14.485Z,11.68
2022-09-12T22:19:45.482Z,11.65
2022-09-12T22:22:34.423Z,11.62
2022-09-12T22:25:12.313Z,11.59
2022-09-12T22:27:43.366Z,11.56
2022-09-12T22:30:15.400Z,11.54
2022-09-12T22:32:48.359Z,11.53
2022-09-12T22:35:21.013Z,11.51
2022-09-12T22:37:52.035Z,11.49
2022-09-12T22:40:23.185Z,11.48
2022-09-12T22:42:55.716Z,11.46
2022-09-12T22:45:29.860Z,11.43
2022-09-12T22:48:01.351Z,11.41
2022-09-12T22:50:32.939Z,11.39
2022-09-12T22:53:04.264Z,11.38
2022-09-12T22:55:55.710Z,11.35
2022-09-12T22:58:27.138Z,11.33
2022-09-12T23:00:58.235Z,11.30
2022-09-12T23:03:29.912Z,11.27
2022-09-12T23:06:01.127Z,11.23
2022-09-12T23:08:32.264Z,11.20
2022-09-12T23:11:09.145Z,11.18
2022-09-12T23:13:42.406Z,11.18
2022-09-12T23:16:19.416Z,11.18
2022-09-12T23:18:51.064Z,11.17
2022-09-12T23:21:23.415Z,11.18
2022-09-12T23:23:56.319Z,11.17
2022-09-12T23:26:28.363Z,11.17
2022-09-12T23:29:01.145Z,11.17
2022-09-12T23:31:33.990Z,11.18
2022-09-12T23:34:09.473Z,11.15
2022-09-12T23:36:40.413Z,11.12
2022-09-12T23:39:11.961Z,11.09
2022-09-12T23:41:43.295Z,11.06
2022-09-12T23:44:17.345Z,11.01
2022-09-12T23:46:48.464Z,10.97
2022-09-12T23:49:20.127Z,10.93
2022-09-12T23:51:51.087Z,10.90
2022-09-12T23:54:22.018Z,10.87
2022-09-12T23:56:53.239Z,10.84
2022-09-12T23:59:24.216Z,10.81
